This is the latest recevied weather packets stored in our database for station/object EA7OC-10. If no packets are shown the sender has not sent any weather packets the latest 10 day(s).
| Time | Temp. | Humidity | Pressure | Rain* | Wind** | Luminosity | Snow |
|---|---|---|---|---|---|---|---|
| 1788117777 | 32.22° C | 21% | 1015.2 hPa | - | - | - | - |
| 1788116877 | 33.33° C | 21% | 1015.2 hPa | - | - | - | - |
| 1788115976 | 34.44° C | 20% | 1015 hPa | - | - | - | - |
| 1788115076 | 36.67° C | 20% | 1015 hPa | - | - | - | - |
| 1788114176 | 39.44° C | 20% | 1015.1 hPa | - | - | - | - |
| 1788113276 | 40.56° C | 21% | 1015.1 hPa | - | - | - | - |
| 1788112376 | 41.67° C | 21% | 1015.2 hPa | - | - | - | - |
| 1788111476 | 42.78° C | 21% | 1015.2 hPa | - | - | - | - |
| 1788110576 | 43.89° C | 21% | 1015 hPa | - | - | - | - |
| 1788109676 | 44.44° C | 21% | 1015 hPa | - | - | - | - |
| 1788108776 | 44.44° C | 22% | 1015.1 hPa | - | - | - | - |
| 1788107871 | 45° C | 22% | 1015.2 hPa | - | - | - | - |
| 1788106971 | 45° C | 23% | 1015.2 hPa | - | - | - | - |
| 1788106071 | 45° C | 22% | 1015.3 hPa | - | - | - | - |
| 1788105167 | 44.44° C | 22% | 1015.4 hPa | - | - | - | - |
| 1788104267 | 45° C | 23% | 1015.4 hPa | - | - | - | - |
| 1788103367 | 45° C | 23% | 1015.7 hPa | - | - | - | - |
| 1788102467 | 45° C | 23% | 1015.6 hPa | - | - | - | - |
| 1788101567 | 43.89° C | 23% | 1015.9 hPa | - | - | - | - |
| 1788100667 | 44.44° C | 23% | 1015.9 hPa | - | - | - | - |
| 1788099766 | 43.89° C | 24% | 1016.2 hPa | - | - | - | - |
| 1788098866 | 43.33° C | 24% | 1016.5 hPa | - | - | - | - |
| 1788097966 | 42.78° C | 24% | 1016.6 hPa | - | - | - | - |
| 1788097066 | 42.22° C | 24% | 1016.8 hPa | - | - | - | - |
| 1788096166 | 42.22° C | 24% | 1016.9 hPa | - | - | - | - |
* Rain since midnight (hover to see other rain measurements)
** Current wind speed in m/s (hover to see current wind gust speed)